createdAt,value
2018-12-06T00:00:21.432Z,9.37
2018-12-06T00:03:03.697Z,9.62
2018-12-06T00:05:46.324Z,9.41
2018-12-06T00:08:26.966Z,9.61
2018-12-06T00:10:55.326Z,9.61
2018-12-06T00:13:36.054Z,9.61
2018-12-06T00:16:18.532Z,9.61
2018-12-06T00:19:02.845Z,9.60
2018-12-06T00:21:31.178Z,9.61
2018-12-06T00:24:12.195Z,9.61
2018-12-06T00:26:40.475Z,9.61
2018-12-06T00:29:08.816Z,9.61
2018-12-06T00:31:50.019Z,9.61
2018-12-06T00:34:18.599Z,9.64
2018-12-06T00:37:13.204Z,9.65
2018-12-06T00:39:54.627Z,9.67
2018-12-06T00:42:22.916Z,9.68
2018-12-06T00:45:05.767Z,9.43
2018-12-06T00:47:50.390Z,9.75
2018-12-06T00:50:31.101Z,9.77
2018-12-06T00:53:12.631Z,9.80
2018-12-06T00:55:40.927Z,9.84
2018-12-06T00:58:21.727Z,9.87
2018-12-06T01:03:41.742Z,9.92
2018-12-06T01:06:24.162Z,9.95
2018-12-06T01:08:52.421Z,9.98
2018-12-06T01:11:35.289Z,10.01
2018-12-06T01:14:03.642Z,10.04
2018-12-06T01:16:31.913Z,10.07
2018-12-06T01:19:13.976Z,10.08
2018-12-06T01:21:54.734Z,10.12
2018-12-06T01:24:36.176Z,10.16
2018-12-06T01:27:04.463Z,10.18
2018-12-06T01:29:45.270Z,10.20
2018-12-06T01:32:27.714Z,10.20
2018-12-06T01:35:09.225Z,10.22
2018-12-06T01:37:50.840Z,10.22
2018-12-06T01:40:32.298Z,10.24
2018-12-06T01:43:13.840Z,10.27
2018-12-06T01:45:42.170Z,10.29
2018-12-06T01:48:10.493Z,10.30
2018-12-06T01:50:38.831Z,10.33
2018-12-06T01:53:07.135Z,10.35
2018-12-06T01:55:35.494Z,10.36
2018-12-06T01:58:03.802Z,10.39
2018-12-06T02:00:32.150Z,10.42
2018-12-06T02:06:12.929Z,10.44
2018-12-06T02:08:55.330Z,10.44
2018-12-06T02:11:23.718Z,10.46
2018-12-06T02:14:04.543Z,10.49
2018-12-06T02:16:33.005Z,10.51
2018-12-06T02:19:13.799Z,10.53
2018-12-06T02:30:56.183Z,10.60
2018-12-06T02:33:24.466Z,10.60
2018-12-06T02:45:16.723Z,10.71
2018-12-06T02:53:59.989Z,10.77
2018-12-06T02:56:47.211Z,10.82
2018-12-06T02:59:15.502Z,10.84
2018-12-06T03:17:14.995Z,10.98
2018-12-06T03:46:56.189Z,11.14
2018-12-06T04:17:25.332Z,11.30
2018-12-06T06:33:32.931Z,11.72
2018-12-06T07:01:09.514Z,11.76
2018-12-06T07:26:30.051Z,11.78
2018-12-06T07:28:58.472Z,11.77
2018-12-06T07:31:26.829Z,11.74
2018-12-06T07:49:36.197Z,11.73
2018-12-06T08:26:23.888Z,11.90
2018-12-06T08:28:52.204Z,11.92
2018-12-06T09:02:03.088Z,12.23
2018-12-06T09:04:44.407Z,12.26
2018-12-06T09:07:14.028Z,12.29
2018-12-06T09:26:02.260Z,12.46
2018-12-06T09:28:30.758Z,12.44
2018-12-06T09:31:01.095Z,12.46
2018-12-06T09:33:29.670Z,12.46
2018-12-06T09:35:58.058Z,12.49
2018-12-06T09:38:26.496Z,12.51
2018-12-06T09:40:54.815Z,12.54
2018-12-06T09:43:23.263Z,12.59
2018-12-06T09:45:51.567Z,12.63
2018-12-06T09:48:19.892Z,12.68
2018-12-06T09:50:48.240Z,12.74
2018-12-06T09:53:16.696Z,12.79
2018-12-06T09:55:45.041Z,12.84
2018-12-06T09:58:13.379Z,12.89
2018-12-06T10:00:41.706Z,12.95
2018-12-06T10:03:10.090Z,13.01
2018-12-06T10:05:38.424Z,13.08
2018-12-06T10:08:06.805Z,13.13
2018-12-06T10:10:35.181Z,13.21
2018-12-06T10:13:03.555Z,13.26
2018-12-06T10:15:31.891Z,13.32
2018-12-06T10:18:00.267Z,13.36
2018-12-06T10:20:28.585Z,13.39
2018-12-06T10:22:56.960Z,13.41
2018-12-06T10:25:25.313Z,13.42
2018-12-06T10:27:53.634Z,13.43
2018-12-06T10:30:21.940Z,13.44
2018-12-06T10:32:50.250Z,13.47
2018-12-06T10:35:18.596Z,13.49
2018-12-06T10:37:46.913Z,13.52
2018-12-06T10:40:15.264Z,13.55
2018-12-06T10:42:43.653Z,13.58
2018-12-06T10:45:11.981Z,13.63
2018-12-06T10:47:40.321Z,13.67
2018-12-06T10:50:08.734Z,13.72
2018-12-06T10:52:37.081Z,13.76
2018-12-06T10:55:05.491Z,13.83
2018-12-06T10:57:33.835Z,13.87
2018-12-06T11:00:02.196Z,13.90
2018-12-06T11:05:24.298Z,13.97
2018-12-06T11:07:52.653Z,14.01
2018-12-06T11:10:20.952Z,14.03
2018-12-06T11:12:49.298Z,14.06
2018-12-06T11:15:17.626Z,14.08
2018-12-06T11:17:45.929Z,14.09
2018-12-06T11:20:14.355Z,14.12
2018-12-06T11:22:42.683Z,14.13
2018-12-06T11:25:11.006Z,14.14
2018-12-06T11:27:39.385Z,14.16
2018-12-06T11:30:07.982Z,14.16
2018-12-06T11:32:36.355Z,14.16
2018-12-06T11:35:10.533Z,14.19
2018-12-06T11:37:38.939Z,14.20
2018-12-06T11:40:37.432Z,14.20
2018-12-06T11:43:05.732Z,14.24
2018-12-06T11:45:40.924Z,14.25
2018-12-06T11:48:09.243Z,14.27
2018-12-06T11:50:37.592Z,14.29
2018-12-06T11:53:11.807Z,14.31
2018-12-06T11:55:43.796Z,14.33
2018-12-06T11:58:12.137Z,14.35
2018-12-06T12:00:40.519Z,14.36
2018-12-06T12:03:08.892Z,14.38
2018-12-06T12:05:37.190Z,14.41
2018-12-06T12:11:08.840Z,14.47
2018-12-06T12:13:40.953Z,14.50
2018-12-06T12:16:09.297Z,14.52
2018-12-06T12:18:37.615Z,14.56
2018-12-06T12:21:05.961Z,14.58
2018-12-06T12:23:34.271Z,14.61
2018-12-06T12:26:02.625Z,14.63
2018-12-06T12:28:30.943Z,14.64
2018-12-06T12:30:59.298Z,14.66
2018-12-06T12:33:27.643Z,14.67
2018-12-06T12:35:55.970Z,14.69
2018-12-06T12:38:24.317Z,14.70
2018-12-06T12:40:52.669Z,14.72
2018-12-06T12:43:21.011Z,14.74
2018-12-06T12:45:49.313Z,14.75
2018-12-06T12:48:17.651Z,14.78
2018-12-06T12:50:45.955Z,14.79
2018-12-06T12:53:14.305Z,14.79
2018-12-06T12:55:42.636Z,14.81
2018-12-06T12:58:10.990Z,14.82
2018-12-06T13:00:39.305Z,14.84
2018-12-06T13:03:07.620Z,14.85
2018-12-06T13:05:36.005Z,14.87
2018-12-06T13:08:04.316Z,14.89
2018-12-06T13:10:32.640Z,14.91
2018-12-06T13:13:01.819Z,14.92
2018-12-06T13:15:30.221Z,14.93
2018-12-06T13:17:58.601Z,14.95
2018-12-06T13:20:26.896Z,14.96
2018-12-06T13:22:55.236Z,14.98
2018-12-06T13:25:23.557Z,15.00
2018-12-06T13:27:51.907Z,15.03
2018-12-06T13:30:20.214Z,15.03
2018-12-06T13:32:54.638Z,15.06
2018-12-06T13:35:30.216Z,15.07
2018-12-06T13:38:11.416Z,15.10
2018-12-06T13:40:39.791Z,15.11
2018-12-06T13:43:08.094Z,15.13
2018-12-06T13:45:57.111Z,15.14
2018-12-06T13:48:25.507Z,15.17
2018-12-06T13:50:53.841Z,15.18
2018-12-06T13:53:22.231Z,15.21
2018-12-06T13:55:50.554Z,15.23
2018-12-06T13:58:18.842Z,15.24
2018-12-06T14:00:47.417Z,15.27
2018-12-06T14:03:15.906Z,15.28
2018-12-06T14:05:44.271Z,15.30
2018-12-06T14:08:12.659Z,15.30
2018-12-06T14:10:41.002Z,15.31
2018-12-06T14:13:09.329Z,15.33
2018-12-06T14:15:37.705Z,15.36
2018-12-06T14:18:05.998Z,15.37
2018-12-06T14:20:34.321Z,15.37
2018-12-06T14:23:02.613Z,15.37
2018-12-06T14:25:30.957Z,15.39
2018-12-06T14:27:59.270Z,15.37
2018-12-06T14:30:27.557Z,15.40
2018-12-06T14:32:55.918Z,15.41
2018-12-06T14:35:24.546Z,15.42
2018-12-06T14:37:52.893Z,15.42
2018-12-06T14:40:21.257Z,15.42
2018-12-06T14:42:49.586Z,15.43
2018-12-06T14:45:18.796Z,15.42
2018-12-06T14:47:47.287Z,15.41
2018-12-06T14:50:15.706Z,15.40
2018-12-06T14:52:44.056Z,15.39
2018-12-06T14:55:12.412Z,15.37
2018-12-06T14:57:40.814Z,15.34
2018-12-06T15:00:09.528Z,15.33
2018-12-06T15:02:37.876Z,15.32
2018-12-06T15:05:07.314Z,15.30
2018-12-06T15:07:35.634Z,15.30
2018-12-06T15:10:04.965Z,15.28
2018-12-06T15:12:33.290Z,15.28
2018-12-06T15:15:01.611Z,15.28
2018-12-06T15:17:30.041Z,15.26
2018-12-06T15:19:58.406Z,15.25
2018-12-06T15:22:26.715Z,15.24
2018-12-06T15:24:55.477Z,15.23
2018-12-06T15:27:24.257Z,15.22
2018-12-06T15:29:52.887Z,15.21
2018-12-06T15:32:21.198Z,15.21
2018-12-06T15:34:49.546Z,15.20
2018-12-06T15:37:17.872Z,15.20
2018-12-06T15:39:46.217Z,15.19
2018-12-06T15:42:14.699Z,15.20
2018-12-06T15:44:43.014Z,15.20
2018-12-06T15:47:11.344Z,15.19
2018-12-06T15:49:39.701Z,15.18
2018-12-06T15:52:08.050Z,15.17
2018-12-06T15:54:36.401Z,15.16
2018-12-06T15:57:04.797Z,15.16
2018-12-06T15:59:33.137Z,15.15
2018-12-06T16:02:01.451Z,15.16
2018-12-06T16:04:30.017Z,15.15
2018-12-06T16:06:58.354Z,15.14
2018-12-06T16:09:26.740Z,15.14
2018-12-06T16:11:55.124Z,15.13
2018-12-06T16:14:23.447Z,15.13
2018-12-06T16:16:51.807Z,15.13
2018-12-06T16:19:20.125Z,15.12
2018-12-06T16:21:49.890Z,15.11
2018-12-06T16:24:18.244Z,15.11
2018-12-06T16:26:46.584Z,15.10
2018-12-06T16:29:14.940Z,15.10
2018-12-06T16:31:43.336Z,15.10
2018-12-06T16:34:11.735Z,15.10
2018-12-06T16:37:05.842Z,15.11
2018-12-06T16:39:34.216Z,15.10
2018-12-06T16:42:03.654Z,15.09
2018-12-06T16:44:31.969Z,15.07
2018-12-06T16:47:25.983Z,15.06
2018-12-06T16:49:54.359Z,15.07
2018-12-06T16:52:22.790Z,15.07
2018-12-06T16:54:51.173Z,15.06
2018-12-06T16:57:19.534Z,15.06
2018-12-06T17:02:51.713Z,15.08
2018-12-06T17:08:23.156Z,15.07
2018-12-06T17:10:51.585Z,15.04
2018-12-06T17:13:19.948Z,15.04
2018-12-06T17:15:48.285Z,15.04
2018-12-06T17:18:16.676Z,15.04
2018-12-06T17:20:45.062Z,15.02
2018-12-06T17:23:13.417Z,15.01
2018-12-06T17:25:41.754Z,15.01
2018-12-06T17:28:11.925Z,15.02
2018-12-06T17:30:40.268Z,15.03
2018-12-06T17:33:08.702Z,15.01
2018-12-06T17:35:37.050Z,15.01
2018-12-06T17:38:05.620Z,15.01
2018-12-06T17:43:36.937Z,15.01
2018-12-06T17:46:05.542Z,15.00
2018-12-06T17:51:34.273Z,15.02
2018-12-06T17:57:09.389Z,15.02
2018-12-06T17:59:37.725Z,15.02
2018-12-06T18:02:06.350Z,15.02
2018-12-06T18:04:34.757Z,15.04
2018-12-06T18:07:03.131Z,15.04
2018-12-06T18:09:31.482Z,15.04
2018-12-06T18:11:59.821Z,15.05
2018-12-06T18:14:28.207Z,15.06
2018-12-06T18:16:56.579Z,15.06
2018-12-06T18:19:26.862Z,15.05
2018-12-06T18:21:56.144Z,15.08
2018-12-06T18:24:50.640Z,15.07
2018-12-06T18:27:32.725Z,15.07
2018-12-06T18:30:02.158Z,15.07
2018-12-06T18:32:32.224Z,15.06
2018-12-06T18:35:02.644Z,15.06
2018-12-06T18:37:34.700Z,15.04
2018-12-06T18:40:06.369Z,15.02
2018-12-06T18:42:51.321Z,15.06
2018-12-06T18:45:43.552Z,15.07
2018-12-06T18:48:21.612Z,15.06
2018-12-06T18:50:53.753Z,15.06
2018-12-06T18:53:24.560Z,15.05
2018-12-06T18:55:56.210Z,15.06
2018-12-06T19:04:58.507Z,15.00
2018-12-06T19:07:27.106Z,15.00
2018-12-06T19:10:02.753Z,15.00
2018-12-06T19:12:31.388Z,14.99
2018-12-06T19:15:07.470Z,14.98
2018-12-06T19:20:44.457Z,14.98
2018-12-06T19:23:25.317Z,14.97
2018-12-06T19:26:00.964Z,14.96
2018-12-06T19:28:45.794Z,14.96
2018-12-06T19:31:14.125Z,14.97
2018-12-06T19:33:45.936Z,14.97
2018-12-06T19:39:21.683Z,14.97
2018-12-06T19:41:55.835Z,14.96
2018-12-06T19:44:27.186Z,14.96
2018-12-06T19:46:57.158Z,14.96
2018-12-06T19:49:28.762Z,14.95
2018-12-06T19:51:59.999Z,14.97
2018-12-06T19:54:35.943Z,14.84
2018-12-06T19:57:10.026Z,14.99
2018-12-06T19:59:44.989Z,14.99
2018-12-06T20:02:22.135Z,15.01
2018-12-06T20:04:57.107Z,15.03
2018-12-06T20:07:31.967Z,15.03
2018-12-06T20:10:05.820Z,15.04
2018-12-06T20:15:43.558Z,15.08
2018-12-06T20:18:12.151Z,15.10
2018-12-06T20:20:41.424Z,15.12
2018-12-06T20:23:10.022Z,15.13
2018-12-06T20:25:58.393Z,15.15
2018-12-06T20:28:35.298Z,15.15
2018-12-06T20:31:29.936Z,15.17
2018-12-06T20:33:58.491Z,15.17
2018-12-06T20:36:47.669Z,15.18
2018-12-06T20:39:19.746Z,15.20
2018-12-06T20:41:48.034Z,15.22
2018-12-06T20:44:26.292Z,15.23
2018-12-06T20:46:59.100Z,15.26
2018-12-06T20:49:34.726Z,15.27
2018-12-06T20:55:10.695Z,15.30
2018-12-06T20:57:59.825Z,15.30
2018-12-06T21:00:35.018Z,15.32
2018-12-06T21:03:07.405Z,15.32
2018-12-06T21:05:41.842Z,15.19
2018-12-06T21:08:16.739Z,15.33
2018-12-06T21:11:05.679Z,15.34
2018-12-06T21:13:48.285Z,15.35
2018-12-06T21:16:19.663Z,15.35
2018-12-06T21:21:58.017Z,15.35
2018-12-06T21:24:33.705Z,15.33
2018-12-06T21:27:05.345Z,15.34
2018-12-06T21:32:47.589Z,15.33
2018-12-06T21:35:25.217Z,15.33
2018-12-06T21:37:56.880Z,15.33
2018-12-06T21:40:30.303Z,15.34
2018-12-06T21:43:03.135Z,15.35
2018-12-06T21:45:38.474Z,15.35
2018-12-06T21:48:14.612Z,15.35
2018-12-06T21:50:54.788Z,15.35
2018-12-06T21:53:43.288Z,15.34
2018-12-06T21:56:22.027Z,15.35
2018-12-06T21:58:56.105Z,15.37
2018-12-06T22:04:45.660Z,15.37
2018-12-06T22:07:35.088Z,15.39
2018-12-06T22:10:23.489Z,15.39
2018-12-06T22:13:09.070Z,15.40
2018-12-06T22:15:43.771Z,15.41
2018-12-06T22:18:18.145Z,15.41
2018-12-06T22:21:10.377Z,15.40
2018-12-06T22:23:45.140Z,15.40
2018-12-06T22:26:15.886Z,15.40
2018-12-06T22:28:49.639Z,15.39
2018-12-06T22:31:23.210Z,15.40
2018-12-06T22:33:54.233Z,15.42
2018-12-06T22:36:26.866Z,15.42
2018-12-06T22:38:59.817Z,15.42
2018-12-06T22:41:36.248Z,15.44
2018-12-06T22:44:11.242Z,15.44
2018-12-06T22:49:48.411Z,15.45
2018-12-06T22:52:39.937Z,15.44
2018-12-06T22:55:24.419Z,15.44
2018-12-06T22:58:02.510Z,15.42
2018-12-06T23:00:40.010Z,15.40
2018-12-06T23:03:16.735Z,15.39
2018-12-06T23:05:50.927Z,15.37
2018-12-06T23:08:22.868Z,15.37
2018-12-06T23:10:58.258Z,15.37
2018-12-06T23:13:33.945Z,15.36
2018-12-06T23:16:09.915Z,15.36
2018-12-06T23:18:58.755Z,15.35
2018-12-06T23:21:37.084Z,15.35
2018-12-06T23:27:29.793Z,15.36
2018-12-06T23:30:26.015Z,15.34
2018-12-06T23:33:02.452Z,15.34
2018-12-06T23:35:36.610Z,15.35
2018-12-06T23:38:12.984Z,15.34
2018-12-06T23:40:45.766Z,15.32
2018-12-06T23:43:18.394Z,15.31
2018-12-06T23:51:58.975Z,15.29
2018-12-06T23:54:45.275Z,15.28
2018-12-06T23:57:27.586Z,15.27
